createdAt,value
2022-09-02T00:00:21.621Z,0.28
2022-09-02T00:02:23.441Z,0.45
2022-09-02T00:04:26.106Z,0.40
2022-09-02T00:06:28.223Z,0.47
2022-09-02T00:08:30.165Z,0.22
2022-09-02T00:10:33.250Z,0.40
2022-09-02T00:12:35.016Z,0.40
2022-09-02T00:14:37.462Z,0.47
2022-09-02T00:16:39.639Z,0.50
2022-09-02T00:18:43.151Z,0.40
2022-09-02T00:20:48.312Z,0.32
2022-09-02T00:22:50.104Z,0.22
2022-09-02T00:24:51.895Z,0.40
2022-09-02T00:26:56.541Z,0.38
2022-09-02T00:28:58.660Z,0.40
2022-09-02T00:31:00.527Z,0.45
2022-09-02T00:33:02.481Z,0.40
2022-09-02T00:35:04.973Z,0.22
2022-09-02T00:37:06.711Z,0.13
2022-09-02T00:39:08.909Z,0.30
2022-09-02T00:41:10.961Z,0.20
2022-09-02T00:43:12.838Z,0.30
2022-09-02T00:45:14.566Z,0.30
2022-09-02T00:47:16.254Z,0.30
2022-09-02T00:49:28.677Z,0.40
2022-09-02T00:51:34.574Z,0.30
2022-09-02T00:53:36.459Z,0.28
2022-09-02T00:55:43.582Z,0.25
2022-09-02T00:57:50.842Z,0.22
2022-09-02T01:00:01.135Z,0.30
2022-09-02T01:02:02.993Z,0.20
2022-09-02T01:04:04.867Z,0.30
2022-09-02T01:06:06.988Z,0.25
2022-09-02T01:08:08.731Z,0.20
2022-09-02T01:10:14.117Z,0.40
2022-09-02T01:12:15.986Z,0.40
2022-09-02T01:14:17.741Z,0.50
2022-09-02T01:16:22.337Z,0.30
2022-09-02T01:18:26.721Z,0.20
2022-09-02T01:22:31.041Z,0.20
2022-09-02T01:24:32.839Z,0.10
2022-09-02T01:26:34.530Z,0.10
2022-09-02T01:28:36.428Z,0.30
2022-09-02T01:30:39.318Z,0.35
2022-09-02T01:32:41.036Z,0.10
2022-09-02T01:34:42.856Z,0.20
2022-09-02T01:36:44.592Z,0.20
2022-09-02T01:38:46.271Z,0.10
2022-09-02T01:40:48.172Z,0.30
2022-09-02T01:42:50.033Z,0.20
2022-09-02T01:44:51.924Z,0.20
2022-09-02T01:46:54.122Z,0.10
2022-09-02T01:48:55.920Z,0.32
2022-09-02T01:51:00.428Z,0.20
2022-09-02T01:53:02.259Z,0.30
2022-09-02T01:55:04.609Z,0.20
2022-09-02T01:57:06.338Z,0.40
2022-09-02T01:59:08.106Z,0.20
2022-09-02T02:01:09.928Z,0.30
2022-09-02T02:03:11.836Z,0.10
2022-09-02T02:05:13.681Z,0.20
2022-09-02T02:07:16.175Z,0.22
2022-09-02T02:09:17.988Z,0.40
2022-09-02T02:11:21.624Z,0.38
2022-09-02T02:13:23.845Z,0.40
2022-09-02T02:17:26.330Z,0.43
2022-09-02T02:19:28.299Z,0.30
2022-09-02T02:21:30.416Z,0.20
2022-09-02T02:23:32.234Z,0.20
2022-09-02T02:25:34.066Z,0.50
2022-09-02T02:27:35.911Z,0.20
2022-09-02T02:29:38.855Z,0.20
2022-09-02T02:31:40.697Z,0.20
2022-09-02T02:33:42.490Z,0.30
2022-09-02T02:35:44.213Z,0.30
2022-09-02T02:37:46.810Z,0.30
2022-09-02T02:39:48.519Z,0.22
2022-09-02T02:41:50.232Z,0.30
2022-09-02T02:43:52.022Z,0.17
2022-09-02T02:45:53.923Z,0.30
2022-09-02T02:47:55.694Z,0.30
2022-09-02T02:49:57.439Z,0.28
2022-09-02T02:51:59.246Z,0.20
2022-09-02T02:54:01.366Z,0.10
2022-09-02T02:56:04.287Z,0.20
2022-09-02T02:58:06.413Z,0.20
2022-09-02T03:00:25.869Z,0.20
2022-09-02T03:02:27.782Z,0.20
2022-09-02T03:04:29.628Z,0.30
2022-09-02T03:06:31.445Z,0.20
2022-09-02T03:08:33.174Z,0.10
2022-09-02T03:10:35.131Z,0.20
2022-09-02T03:12:37.060Z,0.35
2022-09-02T03:14:38.791Z,0.22
2022-09-02T03:16:40.623Z,0.32
2022-09-02T03:18:42.455Z,0.13
2022-09-02T03:20:44.242Z,0.35
2022-09-02T03:22:46.572Z,0.30
2022-09-02T03:24:48.957Z,0.20
2022-09-02T03:26:50.703Z,0.20
2022-09-02T03:28:54.493Z,0.28
2022-09-02T03:30:56.301Z,0.25
2022-09-02T03:33:03.238Z,0.40
2022-09-02T03:35:07.190Z,0.55
2022-09-02T03:37:09.192Z,0.20
2022-09-02T03:39:11.476Z,0.28
2022-09-02T03:41:13.172Z,0.38
2022-09-02T03:43:15.001Z,0.30
2022-09-02T03:45:17.115Z,0.35
2022-09-02T03:47:20.689Z,0.50
2022-09-02T03:49:23.596Z,0.40
2022-09-02T03:51:25.459Z,0.60
2022-09-02T03:53:27.298Z,0.50
2022-09-02T03:55:29.416Z,0.40
2022-09-02T03:57:31.593Z,0.70
2022-09-02T03:59:35.675Z,0.20
2022-09-02T04:01:37.498Z,0.20
2022-09-02T04:03:39.330Z,0.60
2022-09-02T04:05:40.998Z,0.30
2022-09-02T04:07:42.868Z,0.32
2022-09-02T04:09:48.702Z,0.35
2022-09-02T04:11:50.578Z,0.40
2022-09-02T04:13:52.718Z,0.40
2022-09-02T04:15:57.468Z,0.20
2022-09-02T04:18:02.007Z,0.40
2022-09-02T04:20:05.282Z,0.50
2022-09-02T04:22:07.893Z,0.40
2022-09-02T04:24:10.760Z,0.47
2022-09-02T04:26:14.103Z,0.55
2022-09-02T04:28:17.033Z,0.60
2022-09-02T04:30:18.765Z,0.50
2022-09-02T04:32:20.534Z,0.60
2022-09-02T04:34:24.523Z,1.27
2022-09-02T04:36:30.685Z,0.40
2022-09-02T04:38:32.789Z,0.13
2022-09-02T04:40:34.626Z,0.40
2022-09-02T04:42:36.423Z,0.63
2022-09-02T04:44:39.507Z,0.35
2022-09-02T04:46:41.401Z,0.50
2022-09-02T04:48:43.480Z,0.20
2022-09-02T04:50:45.297Z,0.40
2022-09-02T04:52:46.998Z,0.65
2022-09-02T04:54:48.744Z,0.40
2022-09-02T04:56:50.403Z,0.22
2022-09-02T04:58:52.220Z,0.40
2022-09-02T05:00:53.909Z,0.30
2022-09-02T05:02:55.826Z,0.28
2022-09-02T05:04:57.594Z,0.30
2022-09-02T05:06:59.534Z,0.57
2022-09-02T05:09:01.305Z,0.40
2022-09-02T05:11:10.463Z,0.20
2022-09-02T05:13:12.189Z,0.47
2022-09-02T05:15:13.993Z,0.38
2022-09-02T05:17:18.987Z,0.20
2022-09-02T05:19:24.234Z,0.10
2022-09-02T05:21:25.986Z,0.30
2022-09-02T05:23:27.813Z,0.60
2022-09-02T05:25:29.823Z,0.35
2022-09-02T05:27:32.020Z,0.20
2022-09-02T05:29:33.699Z,0.32
2022-09-02T05:31:35.511Z,0.50
2022-09-02T05:33:37.521Z,0.40
2022-09-02T05:35:45.834Z,0.50
2022-09-02T05:37:48.810Z,0.50
2022-09-02T05:39:51.743Z,0.40
2022-09-02T05:41:53.553Z,0.65
2022-09-02T05:43:56.887Z,0.80
2022-09-02T05:46:05.042Z,0.77
2022-09-02T05:48:06.817Z,0.60
2022-09-02T05:50:08.937Z,0.85
2022-09-02T05:52:10.681Z,0.60
2022-09-02T05:54:15.262Z,0.73
2022-09-02T05:56:16.964Z,0.50
2022-09-02T05:58:18.781Z,0.70
2022-09-02T06:00:20.583Z,0.60
2022-09-02T06:02:23.327Z,0.45
2022-09-02T06:04:25.185Z,0.50
2022-09-02T06:06:26.985Z,0.50
2022-09-02T06:08:28.756Z,0.70
2022-09-02T06:10:30.467Z,0.60
2022-09-02T06:12:32.253Z,0.80
2022-09-02T06:14:34.103Z,0.70
2022-09-02T06:16:36.086Z,0.80
2022-09-02T06:18:37.910Z,0.65
2022-09-02T06:20:41.243Z,0.80
2022-09-02T06:22:42.973Z,0.77
2022-09-02T06:24:44.704Z,0.90
2022-09-02T06:26:46.453Z,0.60
2022-09-02T06:28:48.199Z,0.70
2022-09-02T06:30:49.997Z,0.85
2022-09-02T06:32:51.727Z,0.85
2022-09-02T06:34:53.485Z,0.68
2022-09-02T06:36:55.530Z,0.80
2022-09-02T06:38:57.947Z,0.65
2022-09-02T06:40:59.738Z,0.68
2022-09-02T06:43:01.597Z,0.77
2022-09-02T06:45:03.412Z,0.70
2022-09-02T06:47:05.275Z,0.68
2022-09-02T06:49:07.704Z,0.70
2022-09-02T06:51:09.426Z,0.70
2022-09-02T06:53:11.387Z,0.60
2022-09-02T06:55:13.360Z,0.50
2022-09-02T06:57:15.130Z,0.60
2022-09-02T06:59:18.322Z,0.50
2022-09-02T07:01:28.163Z,0.52
2022-09-02T07:03:29.980Z,0.40
2022-09-02T07:05:31.700Z,0.50
2022-09-02T07:07:35.341Z,0.55
2022-09-02T07:09:37.076Z,0.50
2022-09-02T07:11:38.832Z,0.50
2022-09-02T07:13:40.792Z,0.40
2022-09-02T07:15:42.544Z,0.50
2022-09-02T07:17:44.496Z,0.40
2022-09-02T07:19:46.216Z,0.50
2022-09-02T07:21:48.697Z,0.50
2022-09-02T07:23:50.426Z,0.60
2022-09-02T07:25:52.325Z,0.60
2022-09-02T07:27:54.037Z,0.40
2022-09-02T07:29:55.828Z,0.50
2022-09-02T07:31:57.731Z,0.40
2022-09-02T07:33:59.457Z,0.50
2022-09-02T07:36:01.206Z,0.40
2022-09-02T07:38:03.601Z,0.50
2022-09-02T07:40:06.615Z,0.57
2022-09-02T07:42:08.434Z,0.35
2022-09-02T07:44:10.542Z,0.50
2022-09-02T07:46:12.298Z,0.70
2022-09-02T07:48:14.064Z,0.60
2022-09-02T07:50:19.055Z,0.60
2022-09-02T07:52:22.313Z,0.50
2022-09-02T07:54:24.794Z,0.47
2022-09-02T07:56:26.532Z,0.63
2022-09-02T07:58:28.590Z,0.47
2022-09-02T08:00:34.130Z,0.60
2022-09-02T08:02:35.902Z,0.50
2022-09-02T08:04:37.727Z,0.55
2022-09-02T08:06:39.476Z,0.60
2022-09-02T08:08:41.956Z,0.55
2022-09-02T08:10:43.933Z,0.45
2022-09-02T08:12:45.773Z,0.60
2022-09-02T08:14:47.523Z,0.50
2022-09-02T08:16:49.350Z,0.65
2022-09-02T08:18:51.167Z,0.50
2022-09-02T08:20:52.892Z,0.52
2022-09-02T08:23:05.151Z,0.50
2022-09-02T08:25:14.395Z,0.82
2022-09-02T08:27:16.146Z,0.57
2022-09-02T08:29:17.868Z,0.45
2022-09-02T08:31:19.655Z,0.60
2022-09-02T08:33:21.412Z,0.43
2022-09-02T08:35:23.181Z,0.80
2022-09-02T08:37:25.059Z,0.70
2022-09-02T08:39:26.861Z,0.50
2022-09-02T08:41:44.887Z,0.47
2022-09-02T08:43:46.826Z,0.70
2022-09-02T08:45:48.652Z,0.57
2022-09-02T08:47:56.875Z,0.70
2022-09-02T08:50:00.658Z,0.60
2022-09-02T08:52:03.474Z,0.52
2022-09-02T08:54:15.129Z,0.60
2022-09-02T08:56:17.112Z,0.60
2022-09-02T08:58:19.839Z,0.60
2022-09-02T09:00:21.548Z,0.50
2022-09-02T09:03:04.269Z,0.50
2022-09-02T09:05:31.024Z,0.50
2022-09-02T09:07:37.999Z,0.50
2022-09-02T09:10:06.636Z,0.60
2022-09-02T09:12:08.330Z,0.73
2022-09-02T09:14:24.627Z,0.50
2022-09-02T09:16:47.758Z,0.45
2022-09-02T09:19:17.473Z,0.40
2022-09-02T09:21:19.234Z,0.65
2022-09-02T09:23:34.023Z,0.52
2022-09-02T09:25:36.433Z,0.40
2022-09-02T09:27:38.311Z,0.57
2022-09-02T09:29:40.069Z,0.35
2022-09-02T09:31:42.127Z,0.60
2022-09-02T09:34:08.464Z,0.60
2022-09-02T09:36:10.288Z,0.50
2022-09-02T09:38:15.384Z,0.57
2022-09-02T09:40:20.126Z,0.40
2022-09-02T09:42:31.527Z,0.52
2022-09-02T09:44:43.139Z,0.28
2022-09-02T09:46:44.864Z,0.50
2022-09-02T09:48:49.774Z,0.30
2022-09-02T09:50:57.194Z,0.30
2022-09-02T09:53:15.084Z,0.60
2022-09-02T09:55:24.486Z,0.40
2022-09-02T09:57:35.534Z,0.50
2022-09-02T09:59:47.008Z,0.40
2022-09-02T10:01:51.747Z,0.60
2022-09-02T10:04:39.780Z,0.40
2022-09-02T10:06:44.446Z,0.40
2022-09-02T10:09:00.326Z,0.28
2022-09-02T10:11:06.156Z,0.57
2022-09-02T10:13:20.565Z,0.50
2022-09-02T10:15:48.210Z,0.38
2022-09-02T10:18:18.854Z,0.63
2022-09-02T10:20:29.146Z,0.40
2022-09-02T10:23:00.010Z,0.63
2022-09-02T10:25:22.405Z,0.60
2022-09-02T10:27:34.241Z,0.40
2022-09-02T10:30:14.289Z,0.47
2022-09-02T10:32:23.786Z,0.60
2022-09-02T10:34:39.460Z,0.40
2022-09-02T10:37:01.932Z,0.63
2022-09-02T10:39:34.217Z,0.50
2022-09-02T10:41:40.370Z,0.60
2022-09-02T10:43:58.930Z,0.50
2022-09-02T10:46:01.016Z,0.68
2022-09-02T10:48:02.668Z,0.28
2022-09-02T10:50:14.125Z,0.40
2022-09-02T10:52:50.923Z,0.50
2022-09-02T10:55:19.583Z,0.50
2022-09-02T10:57:27.517Z,0.60
2022-09-02T10:59:35.013Z,0.45
2022-09-02T11:01:50.005Z,0.50
2022-09-02T11:04:18.246Z,0.50
2022-09-02T11:06:40.396Z,0.30
2022-09-02T11:08:53.116Z,0.60
2022-09-02T11:10:57.163Z,0.40
2022-09-02T11:13:09.476Z,0.50
2022-09-02T11:15:21.730Z,0.63
2022-09-02T11:17:41.588Z,0.70
2022-09-02T11:19:57.088Z,0.30
2022-09-02T11:22:49.499Z,0.60
2022-09-02T11:25:08.121Z,0.50
2022-09-02T11:27:38.938Z,0.60
2022-09-02T11:30:13.773Z,0.40
2022-09-02T11:32:22.620Z,0.60
2022-09-02T11:34:25.189Z,0.68
2022-09-02T11:36:32.325Z,0.70
2022-09-02T11:39:00.049Z,0.65
2022-09-02T11:41:34.094Z,0.60
2022-09-02T11:44:01.772Z,0.80
2022-09-02T11:46:29.748Z,0.50
2022-09-02T11:48:53.811Z,0.60
2022-09-02T11:51:10.976Z,0.70
2022-09-02T11:53:25.299Z,0.73
2022-09-02T11:55:40.149Z,0.68
2022-09-02T11:57:41.879Z,0.50
2022-09-02T11:59:52.655Z,0.52
2022-09-02T12:01:54.875Z,0.50
2022-09-02T12:06:22.648Z,0.60
2022-09-02T12:08:30.479Z,0.40
2022-09-02T12:10:41.363Z,0.50
2022-09-02T12:12:43.104Z,0.40
2022-09-02T12:14:47.907Z,0.30
2022-09-02T12:17:03.635Z,0.40
2022-09-02T12:19:05.398Z,0.50
2022-09-02T12:21:18.439Z,0.70
2022-09-02T12:23:50.140Z,0.40
2022-09-02T12:25:57.128Z,0.32
2022-09-02T12:28:18.903Z,0.60
2022-09-02T12:30:55.782Z,0.40
2022-09-02T12:33:06.231Z,0.50
2022-09-02T12:35:09.908Z,0.40
2022-09-02T12:37:49.570Z,0.50
2022-09-02T12:39:52.480Z,0.40
2022-09-02T12:42:09.361Z,0.60
2022-09-02T12:44:52.595Z,0.50
2022-09-02T12:46:59.318Z,0.40
2022-09-02T12:49:01.045Z,0.60
2022-09-02T12:51:02.764Z,0.50
2022-09-02T12:53:24.346Z,0.65
2022-09-02T12:55:30.319Z,0.85
2022-09-02T12:57:39.598Z,0.45
2022-09-02T12:59:41.448Z,0.40
2022-09-02T13:02:01.623Z,0.50
2022-09-02T13:04:12.535Z,0.65
2022-09-02T13:06:34.583Z,0.47
2022-09-02T13:08:55.953Z,0.50
2022-09-02T13:11:28.486Z,0.70
2022-09-02T13:13:52.423Z,0.50
2022-09-02T13:16:21.754Z,0.70
2022-09-02T13:18:35.815Z,0.73
2022-09-02T13:20:55.248Z,0.88
2022-09-02T13:23:04.222Z,0.70
2022-09-02T13:25:36.844Z,0.68
2022-09-02T13:28:01.924Z,0.50
2022-09-02T13:30:19.830Z,0.73
2022-09-02T13:32:26.147Z,0.60
2022-09-02T13:34:28.890Z,0.60
2022-09-02T13:36:35.504Z,0.43
2022-09-02T13:38:38.891Z,0.50
2022-09-02T13:40:46.325Z,0.60
2022-09-02T13:42:52.426Z,0.60
2022-09-02T13:45:14.464Z,0.52
2022-09-02T13:47:19.353Z,0.55
2022-09-02T13:49:24.108Z,0.50
2022-09-02T13:51:25.823Z,0.70
2022-09-02T13:53:59.101Z,0.63
2022-09-02T13:56:06.976Z,0.80
2022-09-02T14:00:12.930Z,0.70
2022-09-02T14:02:21.087Z,0.60
2022-09-02T14:04:23.010Z,0.70
2022-09-02T14:06:36.942Z,0.50
2022-09-02T14:08:38.951Z,3.65
2022-09-02T14:10:40.724Z,3.75
2022-09-02T14:12:42.706Z,2.80
2022-09-02T14:14:44.477Z,3.00
2022-09-02T14:16:48.190Z,2.30
2022-09-02T14:19:09.183Z,3.20
2022-09-02T14:21:18.470Z,3.80
2022-09-02T14:23:20.427Z,3.90
2022-09-02T14:25:27.121Z,4.72
2022-09-02T14:27:29.267Z,5.57
2022-09-02T14:29:31.102Z,6.55
2022-09-02T14:31:32.878Z,7.00
2022-09-02T14:33:38.764Z,5.82
2022-09-02T14:35:40.518Z,6.25
2022-09-02T14:37:49.305Z,6.03
2022-09-02T14:40:02.336Z,7.32
2022-09-02T14:42:06.114Z,5.47
2022-09-02T14:44:31.489Z,5.75
2022-09-02T14:46:36.074Z,4.78
2022-09-02T14:48:38.669Z,5.10
2022-09-02T14:50:40.427Z,4.63
2022-09-02T14:52:47.081Z,4.53
2022-09-02T14:54:50.779Z,4.93
2022-09-02T14:56:53.354Z,4.90
2022-09-02T14:58:55.160Z,4.25
2022-09-02T15:01:00.980Z,4.72
2022-09-02T15:03:03.123Z,5.20
2022-09-02T15:05:07.226Z,4.72
2022-09-02T15:07:09.609Z,3.78
2022-09-02T15:09:12.283Z,2.63
2022-09-02T15:11:14.526Z,3.15
2022-09-02T15:13:34.604Z,3.60
2022-09-02T15:15:36.433Z,3.50
2022-09-02T15:17:38.261Z,4.05
2022-09-02T15:19:40.154Z,3.47
2022-09-02T15:21:42.014Z,3.13
2022-09-02T15:23:47.826Z,3.45
2022-09-02T15:25:53.882Z,3.50
2022-09-02T15:28:27.763Z,2.40
2022-09-02T15:30:29.658Z,3.08
2022-09-02T15:32:32.659Z,2.20
2022-09-02T15:34:34.905Z,2.75
2022-09-02T15:36:36.991Z,2.60
2022-09-02T15:38:39.389Z,3.03
2022-09-02T15:40:41.217Z,3.40
2022-09-02T15:42:42.930Z,3.13
2022-09-02T15:44:45.419Z,3.47
2022-09-02T15:46:47.130Z,2.83
2022-09-02T15:48:49.116Z,2.70
2022-09-02T15:50:54.421Z,2.70
2022-09-02T15:52:56.298Z,2.42
2022-09-02T15:54:58.462Z,2.42
2022-09-02T15:57:00.323Z,2.58
2022-09-02T15:59:03.029Z,2.15
2022-09-02T16:01:05.425Z,2.60
2022-09-02T16:03:07.386Z,2.30
2022-09-02T16:05:09.434Z,2.30
2022-09-02T16:07:11.125Z,2.05
2022-09-02T16:09:19.725Z,1.85
2022-09-02T16:11:21.610Z,1.90
2022-09-02T16:13:23.421Z,2.20
2022-09-02T16:15:25.297Z,1.92
2022-09-02T16:17:27.065Z,1.92
2022-09-02T16:19:30.412Z,1.90
2022-09-02T16:21:32.350Z,1.80
2022-09-02T16:23:35.141Z,1.90
2022-09-02T16:25:37.239Z,1.92
2022-09-02T16:27:39.366Z,1.77
2022-09-02T16:29:41.209Z,1.73
2022-09-02T16:31:44.795Z,1.80
2022-09-02T16:34:10.076Z,1.98
2022-09-02T16:36:12.134Z,1.65
2022-09-02T16:38:14.173Z,1.80
2022-09-02T16:40:16.090Z,1.42
2022-09-02T16:42:18.152Z,1.60
2022-09-02T16:44:24.999Z,1.40
2022-09-02T16:46:27.568Z,1.63
2022-09-02T16:48:31.519Z,1.52
2022-09-02T16:50:33.800Z,1.45
2022-09-02T16:52:35.730Z,1.30
2022-09-02T16:54:40.787Z,1.30
2022-09-02T16:56:43.154Z,1.33
2022-09-02T16:58:44.927Z,1.30
2022-09-02T17:00:46.810Z,1.55
2022-09-02T17:02:48.665Z,1.50
2022-09-02T17:04:50.582Z,1.35
2022-09-02T17:06:52.825Z,1.45
2022-09-02T17:08:54.550Z,1.33
2022-09-02T17:11:19.481Z,1.50
2022-09-02T17:13:21.297Z,1.40
2022-09-02T17:15:23.686Z,1.58
2022-09-02T17:17:25.450Z,1.40
2022-09-02T17:19:31.943Z,1.42
2022-09-02T17:21:38.594Z,1.10
2022-09-02T17:23:40.371Z,1.50
2022-09-02T17:25:45.797Z,1.42
2022-09-02T17:27:47.617Z,1.50
2022-09-02T17:29:50.283Z,1.40
2022-09-02T17:31:52.210Z,1.50
2022-09-02T17:33:55.228Z,1.88
2022-09-02T17:35:58.662Z,1.40
2022-09-02T17:38:00.415Z,1.75
2022-09-02T17:40:02.889Z,1.50
2022-09-02T17:42:05.407Z,1.38
2022-09-02T17:44:08.775Z,1.38
2022-09-02T17:46:10.584Z,1.60
2022-09-02T17:48:34.723Z,1.55
2022-09-02T17:50:34.263Z,1.30
2022-09-02T17:52:36.305Z,1.30
2022-09-02T17:54:39.429Z,1.30
2022-09-02T17:57:00.122Z,1.40
2022-09-02T17:59:05.973Z,1.38
2022-09-02T18:01:07.860Z,1.35
2022-09-02T18:03:34.121Z,1.35
2022-09-02T18:05:45.550Z,1.38
2022-09-02T18:08:29.388Z,1.50
2022-09-02T18:10:58.131Z,1.40
2022-09-02T18:13:12.770Z,1.42
2022-09-02T18:15:16.937Z,1.90
2022-09-02T18:17:22.479Z,1.52
2022-09-02T18:19:42.708Z,1.50
2022-09-02T18:21:44.337Z,1.48
2022-09-02T18:23:52.066Z,1.48
2022-09-02T18:26:05.934Z,1.50
2022-09-02T18:29:03.567Z,1.35
2022-09-02T18:31:29.584Z,1.52
2022-09-02T18:33:37.507Z,1.40
2022-09-02T18:35:51.353Z,1.40
2022-09-02T18:38:01.409Z,1.55
2022-09-02T18:40:15.955Z,1.50
2022-09-02T18:42:31.115Z,1.50
2022-09-02T18:45:09.600Z,1.52
2022-09-02T18:47:25.232Z,1.40
2022-09-02T18:49:27.583Z,1.58
2022-09-02T18:51:35.995Z,1.55
2022-09-02T18:53:45.657Z,1.48
2022-09-02T18:55:47.815Z,1.48
2022-09-02T18:57:53.167Z,1.27
2022-09-02T19:00:09.529Z,1.60
2022-09-02T19:02:40.583Z,1.35
2022-09-02T19:04:42.373Z,1.48
2022-09-02T19:06:44.101Z,1.40
2022-09-02T19:08:45.978Z,1.55
2022-09-02T19:10:47.661Z,1.30
2022-09-02T19:12:49.444Z,1.30
2022-09-02T19:14:51.228Z,1.40
2022-09-02T19:16:53.590Z,1.30
2022-09-02T19:18:55.428Z,1.40
2022-09-02T19:20:57.196Z,1.30
2022-09-02T19:22:58.912Z,1.40
2022-09-02T19:25:05.003Z,1.40
2022-09-02T19:27:09.359Z,1.30
2022-09-02T19:31:18.398Z,1.33
2022-09-02T19:33:20.192Z,1.20
2022-09-02T19:35:23.254Z,1.30
2022-09-02T19:37:24.949Z,1.30
2022-09-02T19:39:26.697Z,1.02
2022-09-02T19:41:28.503Z,1.15
2022-09-02T19:43:30.304Z,1.10
2022-09-02T19:45:32.638Z,1.30
2022-09-02T19:49:56.086Z,1.30
2022-09-02T19:51:57.859Z,1.50
2022-09-02T19:53:59.665Z,1.33
2022-09-02T19:56:01.419Z,1.13
2022-09-02T19:58:03.327Z,1.20
2022-09-02T20:00:05.662Z,1.20
2022-09-02T20:02:07.420Z,1.40
2022-09-02T20:04:09.100Z,1.15
2022-09-02T20:06:10.788Z,1.13
2022-09-02T20:08:12.492Z,1.40
2022-09-02T20:10:14.192Z,1.05
2022-09-02T20:12:16.238Z,1.10
2022-09-02T20:14:18.138Z,1.20
2022-09-02T20:16:21.524Z,1.30
2022-09-02T20:18:24.814Z,1.05
2022-09-02T20:20:26.577Z,1.17
2022-09-02T20:22:30.937Z,1.20
2022-09-02T20:26:52.931Z,1.00
2022-09-02T20:29:06.290Z,1.10
2022-09-02T20:31:17.200Z,1.10
2022-09-02T20:33:21.958Z,1.10
2022-09-02T20:35:41.796Z,1.00
2022-09-02T20:38:08.737Z,1.08
2022-09-02T20:40:47.541Z,0.98
2022-09-02T20:43:05.599Z,1.05
2022-09-02T20:45:16.467Z,1.10
2022-09-02T20:47:40.629Z,1.30
2022-09-02T20:49:53.189Z,1.15
2022-09-02T20:52:07.408Z,1.05
2022-09-02T20:54:14.701Z,1.27
2022-09-02T20:56:22.103Z,1.15
2022-09-02T20:58:35.717Z,1.17
2022-09-02T21:00:37.411Z,1.10
2022-09-02T21:03:02.541Z,1.25
2022-09-02T21:05:22.493Z,1.13
2022-09-02T21:07:29.020Z,1.10
2022-09-02T21:09:38.644Z,1.20
2022-09-02T21:11:46.765Z,1.23
2022-09-02T21:14:15.271Z,1.10
2022-09-02T21:16:44.791Z,1.02
2022-09-02T21:19:04.375Z,1.10
2022-09-02T21:21:53.808Z,1.20
2022-09-02T21:24:24.652Z,1.10
2022-09-02T21:26:56.802Z,1.35
2022-09-02T21:29:03.428Z,1.20
2022-09-02T21:31:28.655Z,1.15
2022-09-02T21:35:50.655Z,1.15
2022-09-02T21:37:57.469Z,1.02
2022-09-02T21:40:04.798Z,1.25
2022-09-02T21:42:20.952Z,0.90
2022-09-02T21:44:29.710Z,1.20
2022-09-02T21:46:43.404Z,1.00
2022-09-02T21:48:48.083Z,1.10
2022-09-02T21:50:52.528Z,1.20
2022-09-02T21:55:33.656Z,1.00
2022-09-02T21:57:47.652Z,1.20
2022-09-02T21:59:55.391Z,1.27
2022-09-02T22:02:02.992Z,1.10
2022-09-02T22:04:27.622Z,1.10
2022-09-02T22:06:34.727Z,1.20
2022-09-02T22:08:57.560Z,1.30
2022-09-02T22:11:02.116Z,1.20
2022-09-02T22:13:03.909Z,1.10
2022-09-02T22:15:18.424Z,1.20
2022-09-02T22:17:40.800Z,1.10
2022-09-02T22:19:42.439Z,1.00
2022-09-02T22:21:52.293Z,1.25
2022-09-02T22:23:54.019Z,1.00
2022-09-02T22:25:57.295Z,1.20
2022-09-02T22:28:39.265Z,1.05
2022-09-02T22:30:44.255Z,0.98
2022-09-02T22:32:50.680Z,1.20
2022-09-02T22:35:18.721Z,1.30
2022-09-02T22:37:22.568Z,1.20
2022-09-02T22:39:41.395Z,1.13
2022-09-02T22:41:45.926Z,1.15
2022-09-02T22:44:04.485Z,0.80
2022-09-02T22:46:09.095Z,1.20
2022-09-02T22:48:13.829Z,1.23
2022-09-02T22:50:17.320Z,1.00
2022-09-02T22:52:37.220Z,1.03
2022-09-02T22:54:38.915Z,0.90
2022-09-02T22:56:53.117Z,1.00
2022-09-02T22:58:54.696Z,1.00
2022-09-02T23:01:17.343Z,1.30
2022-09-02T23:03:21.746Z,1.10
2022-09-02T23:05:39.434Z,0.95
2022-09-02T23:07:41.110Z,1.00
2022-09-02T23:09:42.752Z,1.00
2022-09-02T23:12:06.092Z,0.95
2022-09-02T23:14:31.091Z,1.05
2022-09-02T23:16:53.476Z,1.10
2022-09-02T23:19:13.876Z,1.02
2022-09-02T23:21:36.654Z,1.05
2022-09-02T23:24:16.886Z,0.90
2022-09-02T23:26:46.418Z,1.00
2022-09-02T23:29:02.551Z,1.10
2022-09-02T23:31:32.105Z,1.05
2022-09-02T23:33:47.822Z,1.00
2022-09-02T23:35:58.229Z,1.10
2022-09-02T23:38:14.651Z,1.10
2022-09-02T23:40:23.274Z,1.02
2022-09-02T23:42:25.138Z,1.10
2022-09-02T23:44:28.117Z,1.00
2022-09-02T23:46:50.861Z,1.10
2022-09-02T23:48:58.141Z,1.00
2022-09-02T23:51:14.653Z,1.10
2022-09-02T23:53:22.019Z,1.08
2022-09-02T23:55:32.274Z,1.00
2022-09-02T23:57:44.416Z,1.00
